createdAt,value
2018-02-22T00:01:27.994Z,26.20
2018-02-22T00:03:56.445Z,30.60
2018-02-22T00:06:24.833Z,29.03
2018-02-22T00:08:53.233Z,27.70
2018-02-22T00:11:22.409Z,32.73
2018-02-22T00:13:50.789Z,26.33
2018-02-22T00:16:19.194Z,26.80
2018-02-22T00:18:47.572Z,28.43
2018-02-22T00:21:15.961Z,29.30
2018-02-22T00:23:44.373Z,28.57
2018-02-22T00:26:12.794Z,30.90
2018-02-22T00:28:41.191Z,27.53
2018-02-22T00:31:09.597Z,25.00
2018-02-22T00:33:38.046Z,25.33
2018-02-22T00:36:06.449Z,26.10
2018-02-22T00:38:35.597Z,27.90
2018-02-22T00:41:03.997Z,29.33
2018-02-22T00:43:32.381Z,27.73
2018-02-22T00:46:00.819Z,29.17
2018-02-22T00:48:29.215Z,28.50
2018-02-22T00:50:57.585Z,33.80
2018-02-22T00:53:26.001Z,26.07
2018-02-22T00:55:54.438Z,28.40
2018-02-22T00:58:22.817Z,26.00
2018-02-22T01:00:51.244Z,31.93
2018-02-22T01:03:20.405Z,28.00
2018-02-22T01:05:48.852Z,28.30
2018-02-22T01:08:17.290Z,29.83
2018-02-22T01:10:45.670Z,32.20
2018-02-22T01:13:14.833Z,32.17
2018-02-22T01:15:43.231Z,30.03
2018-02-22T01:18:11.632Z,28.83
2018-02-22T01:20:40.781Z,29.30
2018-02-22T01:23:09.162Z,36.63
2018-02-22T01:25:37.555Z,28.87
2018-02-22T01:28:06.018Z,29.53
2018-02-22T01:30:34.406Z,33.70
2018-02-22T01:33:02.833Z,33.27
2018-02-22T01:35:32.001Z,32.07
2018-02-22T01:38:00.378Z,31.00
2018-02-22T01:40:28.761Z,36.80
2018-02-22T01:42:57.195Z,34.10
2018-02-22T01:45:25.597Z,30.40
2018-02-22T01:47:53.986Z,34.67
2018-02-22T01:50:22.424Z,42.67
2018-02-22T01:52:50.792Z,35.43
2018-02-22T01:55:19.943Z,32.07
2018-02-22T01:57:48.348Z,33.40
2018-02-22T02:00:16.713Z,31.00
2018-02-22T02:02:45.134Z,32.93
2018-02-22T02:05:13.547Z,36.60
2018-02-22T02:07:41.917Z,38.90
2018-02-22T02:10:10.371Z,33.13
2018-02-22T02:12:38.773Z,32.40
2018-02-22T02:15:07.181Z,37.90
2018-02-22T02:17:35.568Z,31.57
2018-02-22T02:20:03.992Z,38.73
2018-02-22T02:22:32.394Z,34.60
2018-02-22T02:25:00.772Z,34.30
2018-02-22T02:27:29.179Z,40.63
2018-02-22T02:29:57.576Z,33.07
2018-02-22T02:32:25.982Z,34.30
2018-02-22T02:34:54.372Z,35.47
2018-02-22T02:37:22.819Z,38.73
2018-02-22T02:39:51.971Z,34.20
2018-02-22T02:42:20.484Z,35.17
2018-02-22T02:44:48.829Z,36.67
2018-02-22T02:47:17.233Z,38.27
2018-02-22T02:49:45.658Z,32.13
2018-02-22T02:52:14.043Z,36.97
2018-02-22T02:54:42.439Z,38.30
2018-02-22T02:57:10.849Z,38.23
2018-02-22T02:59:39.250Z,36.00
2018-02-22T03:02:08.390Z,30.03
2018-02-22T03:04:36.799Z,37.83
2018-02-22T03:07:05.232Z,35.57
2018-02-22T03:09:33.618Z,34.33
2018-02-22T03:12:02.009Z,35.13
2018-02-22T03:14:30.400Z,36.27
2018-02-22T03:16:58.789Z,44.47
2018-02-22T03:19:27.196Z,36.83
2018-02-22T03:21:56.440Z,37.43
2018-02-22T03:24:24.935Z,43.80
2018-02-22T03:26:53.345Z,44.73
2018-02-22T03:29:21.786Z,39.60
2018-02-22T03:31:50.181Z,38.47
2018-02-22T03:34:18.582Z,43.40
2018-02-22T03:36:46.961Z,44.10
2018-02-22T03:39:16.141Z,41.37
2018-02-22T03:41:44.537Z,43.87
2018-02-22T03:44:12.909Z,41.10
2018-02-22T03:46:41.345Z,35.77
2018-02-22T03:49:09.721Z,42.83
2018-02-22T03:51:38.127Z,41.80
2018-02-22T03:54:06.519Z,40.57
2018-02-22T03:56:34.910Z,35.57
2018-02-22T03:59:03.342Z,38.20
2018-02-22T04:01:31.738Z,41.37
2018-02-22T04:04:00.148Z,37.70
2018-02-22T04:06:28.518Z,40.27
2018-02-22T04:08:56.915Z,44.40
2018-02-22T04:11:26.083Z,44.53
2018-02-22T04:13:54.474Z,42.63
2018-02-22T04:16:22.887Z,40.00
2018-02-22T04:18:51.255Z,41.30
2018-02-22T04:21:20.449Z,42.60
2018-02-22T04:23:49.618Z,45.90
2018-02-22T04:26:18.008Z,38.20
2018-02-22T04:28:46.400Z,46.67
2018-02-22T04:31:14.773Z,42.40
2018-02-22T04:33:43.174Z,56.57
2018-02-22T04:36:11.575Z,55.90
2018-02-22T04:38:40.787Z,48.20
2018-02-22T04:41:09.933Z,51.80
2018-02-22T04:43:39.077Z,52.97
2018-02-22T04:46:07.473Z,53.87
2018-02-22T04:48:35.917Z,57.23
2018-02-22T04:51:04.410Z,51.87
2018-02-22T04:53:32.783Z,54.17
2018-02-22T04:56:01.189Z,52.50
2018-02-22T04:58:29.590Z,52.77
2018-02-22T05:00:58.820Z,50.70
2018-02-22T05:03:27.244Z,48.30
2018-02-22T05:05:55.646Z,52.27
2018-02-22T05:08:24.798Z,49.53
2018-02-22T05:10:53.208Z,57.27
2018-02-22T05:13:21.603Z,53.23
2018-02-22T05:15:49.979Z,59.93
2018-02-22T05:18:18.397Z,53.27
2018-02-22T05:20:46.797Z,56.73
2018-02-22T05:23:15.172Z,62.73
2018-02-22T05:25:43.585Z,58.07
2018-02-22T05:28:11.959Z,63.40
2018-02-22T05:30:41.138Z,56.47
2018-02-22T05:33:09.563Z,64.57
2018-02-22T05:35:38.705Z,58.23
2018-02-22T05:38:07.089Z,67.30
2018-02-22T05:40:35.491Z,63.80
2018-02-22T05:43:03.941Z,59.50
2018-02-22T05:45:32.317Z,60.23
2018-02-22T05:48:00.812Z,67.30
2018-02-22T05:50:29.200Z,64.80
2018-02-22T05:52:57.599Z,65.93
2018-02-22T05:55:25.986Z,63.43
2018-02-22T05:57:54.414Z,56.73
2018-02-22T06:00:22.809Z,72.70
2018-02-22T06:02:51.217Z,72.87
2018-02-22T06:05:20.456Z,63.17
2018-02-22T06:07:48.869Z,69.03
2018-02-22T06:10:17.287Z,71.83
2018-02-22T06:12:46.433Z,67.40
2018-02-22T06:15:14.813Z,65.10
2018-02-22T06:17:43.240Z,67.43
2018-02-22T06:20:12.538Z,65.67
2018-02-22T06:22:40.791Z,65.93
2018-02-22T06:25:09.189Z,63.23
2018-02-22T06:27:38.369Z,62.17
2018-02-22T06:30:06.773Z,54.90
2018-02-22T06:32:35.909Z,59.03
2018-02-22T06:35:04.322Z,70.90
2018-02-22T06:37:32.723Z,65.87
2018-02-22T06:40:01.159Z,61.27
2018-02-22T06:42:29.586Z,59.40
2018-02-22T06:44:58.730Z,66.40
2018-02-22T06:47:27.126Z,66.50
2018-02-22T06:49:55.534Z,66.17
2018-02-22T06:52:24.725Z,60.63
2018-02-22T06:54:53.097Z,76.07
2018-02-22T06:57:21.508Z,64.97
2018-02-22T06:59:49.887Z,57.40
2018-02-22T07:02:18.272Z,62.90
2018-02-22T07:04:46.695Z,59.03
2018-02-22T07:07:15.090Z,67.60
2018-02-22T07:09:43.460Z,67.80
2018-02-22T07:12:11.866Z,74.13
2018-02-22T07:14:40.996Z,67.33
2018-02-22T07:17:09.385Z,56.93
2018-02-22T07:19:37.806Z,58.40
2018-02-22T07:22:06.183Z,50.67
2018-02-22T07:24:34.552Z,62.50
2018-02-22T07:27:02.968Z,59.90
2018-02-22T07:29:31.352Z,58.93
2018-02-22T07:31:59.773Z,62.37
2018-02-22T07:34:28.153Z,61.50
2018-02-22T07:36:56.519Z,55.23
2018-02-22T07:39:24.933Z,62.97
2018-02-22T07:41:53.322Z,60.63
2018-02-22T07:44:22.475Z,55.80
2018-02-22T07:46:50.884Z,55.23
2018-02-22T07:49:19.281Z,55.47
2018-02-22T07:51:48.422Z,56.87
2018-02-22T07:54:16.811Z,61.43
2018-02-22T07:56:45.206Z,59.13
2018-02-22T07:59:13.605Z,58.47
2018-02-22T08:01:41.992Z,56.63
2018-02-22T08:04:11.168Z,56.30
2018-02-22T08:06:39.571Z,60.50
2018-02-22T08:09:08.714Z,61.80
2018-02-22T08:11:37.133Z,59.63
2018-02-22T08:14:06.284Z,64.17
2018-02-22T08:16:34.655Z,63.30
2018-02-22T08:19:03.084Z,60.80
2018-02-22T08:21:31.522Z,65.00
2018-02-22T08:23:59.923Z,66.57
2018-02-22T08:26:28.395Z,70.93
2018-02-22T08:28:56.793Z,77.53
2018-02-22T08:31:25.212Z,70.83
2018-02-22T08:33:53.590Z,71.43
2018-02-22T08:36:21.968Z,65.30
2018-02-22T08:38:50.375Z,61.10
2018-02-22T08:41:18.777Z,64.50
2018-02-22T08:43:47.151Z,63.63
2018-02-22T08:46:15.602Z,61.60
2018-02-22T08:48:43.990Z,67.80
2018-02-22T08:51:12.370Z,56.60
2018-02-22T08:53:40.797Z,63.57
2018-02-22T08:56:09.942Z,58.33
2018-02-22T08:58:38.340Z,63.83
2018-02-22T09:01:07.473Z,56.23
2018-02-22T09:03:36.659Z,61.80
2018-02-22T09:06:05.813Z,60.10
2018-02-22T09:08:34.182Z,57.00
2018-02-22T09:11:02.582Z,57.27
2018-02-22T09:13:30.965Z,71.43
2018-02-22T09:15:59.339Z,57.87
2018-02-22T09:18:27.745Z,62.23
2018-02-22T09:20:56.143Z,54.80
2018-02-22T09:23:25.283Z,56.80
2018-02-22T09:25:53.654Z,65.23
2018-02-22T09:28:22.071Z,60.93
2018-02-22T09:30:50.449Z,68.47
2018-02-22T09:33:18.882Z,63.90
2018-02-22T09:35:47.262Z,64.53
2018-02-22T09:38:15.626Z,53.80
2018-02-22T09:40:44.027Z,51.50
2018-02-22T09:43:12.479Z,49.30
2018-02-22T09:45:40.887Z,49.80
2018-02-22T09:48:09.290Z,52.53
2018-02-22T09:50:37.686Z,52.87
2018-02-22T09:53:06.085Z,61.17
2018-02-22T09:55:35.237Z,48.83
2018-02-22T09:58:04.367Z,48.67
2018-02-22T10:00:32.751Z,57.57
2018-02-22T10:03:01.893Z,54.03
2018-02-22T10:05:30.283Z,56.07
2018-02-22T10:07:58.651Z,45.87
2018-02-22T10:10:27.057Z,49.27
2018-02-22T10:12:55.421Z,56.30
2018-02-22T10:15:23.816Z,45.07
2018-02-22T10:17:52.189Z,45.77
2018-02-22T10:20:20.573Z,50.47
2018-02-22T10:22:48.980Z,57.20
2018-02-22T10:25:18.124Z,57.03
2018-02-22T10:27:46.521Z,48.97
2018-02-22T10:30:14.906Z,47.87
2018-02-22T10:32:43.285Z,50.87
2018-02-22T10:35:11.670Z,44.73
2018-02-22T10:37:40.064Z,59.17
2018-02-22T10:40:09.203Z,55.03
2018-02-22T10:42:37.567Z,50.47
2018-02-22T10:45:06.011Z,51.57
2018-02-22T10:47:34.391Z,55.50
2018-02-22T10:50:02.766Z,55.80
2018-02-22T10:52:31.173Z,43.13
2018-02-22T10:54:59.560Z,48.70
2018-02-22T10:57:27.924Z,53.10
2018-02-22T10:59:56.333Z,48.23
2018-02-22T11:02:30.358Z,52.70
2018-02-22T11:04:58.760Z,50.43
2018-02-22T11:07:27.149Z,52.07
2018-02-22T11:09:55.532Z,51.40
2018-02-22T11:12:24.725Z,49.90
2018-02-22T11:14:53.132Z,50.77
2018-02-22T11:17:21.518Z,42.33
2018-02-22T11:19:49.888Z,47.27
2018-02-22T11:22:18.301Z,46.13
2018-02-22T11:24:46.666Z,47.77
2018-02-22T11:27:15.291Z,50.87
2018-02-22T11:29:43.951Z,44.33
2018-02-22T11:32:12.409Z,42.07
2018-02-22T11:34:40.810Z,44.60
2018-02-22T11:37:09.946Z,47.00
2018-02-22T11:39:38.401Z,48.70
2018-02-22T11:42:06.834Z,44.17
2018-02-22T11:44:35.214Z,44.93
2018-02-22T11:47:03.596Z,43.30
2018-02-22T11:49:32.006Z,39.33
2018-02-22T11:52:00.378Z,41.10
2018-02-22T11:54:28.779Z,40.77
2018-02-22T11:56:57.173Z,34.30
2018-02-22T11:59:25.601Z,45.90
2018-02-22T12:01:53.984Z,41.77
2018-02-22T12:04:22.352Z,40.83
2018-02-22T12:06:50.760Z,43.93
2018-02-22T12:09:19.135Z,38.53
2018-02-22T12:11:47.485Z,43.40
2018-02-22T12:14:15.894Z,42.17
2018-02-22T12:16:44.273Z,34.90
2018-02-22T12:19:12.650Z,34.20
2018-02-22T12:21:41.052Z,37.63
2018-02-22T12:24:09.463Z,33.17
2018-02-22T12:26:37.865Z,36.60
2018-02-22T12:29:06.267Z,32.87
2018-02-22T12:31:35.423Z,23.90
2018-02-22T12:34:03.802Z,21.60
2018-02-22T12:36:32.195Z,21.33
2018-02-22T12:39:00.574Z,22.23
2018-02-22T12:41:29.032Z,21.57
2018-02-22T12:43:58.199Z,23.63
2018-02-22T12:46:26.558Z,21.63
2018-02-22T12:48:54.982Z,24.87
2018-02-22T12:51:24.121Z,21.57
2018-02-22T12:53:52.518Z,19.40
2018-02-22T12:56:20.931Z,26.37
2018-02-22T12:58:50.062Z,22.10
2018-02-22T13:01:18.467Z,20.77
2018-02-22T13:03:46.836Z,17.10
2018-02-22T13:06:15.210Z,19.60
2018-02-22T13:08:43.605Z,23.00
2018-02-22T13:11:11.983Z,20.57
2018-02-22T13:13:40.394Z,22.40
2018-02-22T13:16:09.527Z,19.70
2018-02-22T13:18:37.918Z,23.03
2018-02-22T13:21:06.297Z,19.47
2018-02-22T13:23:34.693Z,18.10
2018-02-22T13:26:03.062Z,22.10
2018-02-22T13:28:31.456Z,17.50
2018-02-22T13:30:59.867Z,21.37
2018-02-22T13:33:46.798Z,17.37
2018-02-22T13:36:15.223Z,18.60
2018-02-22T13:39:01.322Z,17.83
2018-02-22T13:41:29.728Z,15.53
2018-02-22T13:44:16.677Z,14.37
2018-02-22T13:46:45.085Z,17.10
2018-02-22T13:49:31.288Z,17.47
2018-02-22T13:51:59.665Z,14.90
2018-02-22T13:54:28.105Z,14.60
2018-02-22T13:57:14.152Z,15.33
2018-02-22T13:59:42.545Z,12.53
2018-02-22T14:02:25.175Z,12.27
2018-02-22T14:04:53.596Z,12.50
2018-02-22T14:07:22.044Z,13.53
2018-02-22T14:09:50.420Z,14.00
2018-02-22T14:12:18.825Z,12.43
2018-02-22T14:14:47.208Z,11.20
2018-02-22T14:17:15.581Z,9.10
2018-02-22T14:19:43.997Z,9.27
2018-02-22T14:22:12.393Z,9.43
2018-02-22T14:24:41.544Z,9.90
2018-02-22T14:27:09.914Z,12.13
2018-02-22T14:29:38.301Z,11.27
2018-02-22T14:32:06.698Z,18.70
2018-02-22T14:34:35.101Z,14.43
2018-02-22T14:37:04.230Z,13.90
2018-02-22T14:39:32.637Z,19.60
2018-02-22T14:42:00.999Z,18.50
2018-02-22T14:44:29.402Z,21.57
2018-02-22T14:46:57.813Z,16.80
2018-02-22T14:49:26.945Z,14.63
2018-02-22T14:51:55.314Z,16.17
2018-02-22T14:54:23.701Z,20.00
2018-02-22T14:56:52.093Z,18.80
2018-02-22T14:59:20.513Z,18.50
2018-02-22T15:01:48.913Z,18.00
2018-02-22T15:04:17.303Z,18.53
2018-02-22T15:06:45.730Z,13.20
2018-02-22T15:09:14.098Z,20.47
2018-02-22T15:11:42.486Z,19.20
2018-02-22T15:14:10.899Z,18.40
2018-02-22T15:16:40.039Z,19.90
2018-02-22T15:19:08.458Z,22.10
2018-02-22T15:21:36.861Z,18.50
2018-02-22T15:24:05.321Z,15.80
2018-02-22T15:26:33.874Z,12.73
2018-02-22T15:29:02.261Z,13.87
2018-02-22T15:31:30.911Z,21.63
2018-02-22T15:33:59.609Z,18.10
2018-02-22T15:36:28.006Z,15.83
2018-02-22T15:38:56.366Z,24.07
2018-02-22T15:41:24.733Z,13.30
2018-02-22T15:43:53.146Z,16.10
2018-02-22T15:46:21.565Z,16.40
2018-02-22T15:48:49.925Z,15.93
2018-02-22T15:51:18.292Z,15.73
2018-02-22T15:53:47.848Z,19.10
2018-02-22T15:56:17.061Z,17.27
2018-02-22T15:58:46.112Z,17.43
2018-02-22T16:01:14.738Z,17.37
2018-02-22T16:03:43.286Z,16.03
2018-02-22T16:06:11.689Z,20.77
2018-02-22T16:08:40.095Z,17.57
2018-02-22T16:11:08.523Z,12.63
2018-02-22T16:13:37.654Z,15.43
2018-02-22T16:16:06.156Z,18.50
2018-02-22T16:18:34.641Z,14.90
2018-02-22T16:21:03.018Z,18.20
2018-02-22T16:23:31.385Z,14.27
2018-02-22T16:25:59.851Z,15.50
2018-02-22T16:28:28.257Z,16.73
2018-02-22T16:30:56.634Z,19.80
2018-02-22T16:33:25.006Z,19.03
2018-02-22T16:35:53.405Z,20.00
2018-02-22T16:38:21.940Z,18.30
2018-02-22T16:40:50.333Z,22.20
2018-02-22T16:43:18.734Z,26.50
2018-02-22T16:45:47.198Z,27.33
2018-02-22T16:48:15.674Z,22.03
2018-02-22T16:50:44.057Z,20.73
2018-02-22T16:53:12.588Z,44.53
2018-02-22T16:55:41.727Z,27.43
2018-02-22T16:58:10.107Z,33.03
2018-02-22T17:00:38.656Z,26.93
2018-02-22T17:03:07.040Z,21.50
2018-02-22T17:05:35.446Z,24.20
2018-02-22T17:08:03.817Z,28.10
2018-02-22T17:10:32.352Z,23.00
2018-02-22T17:13:01.632Z,23.20
2018-02-22T17:15:30.047Z,23.87
2018-02-22T17:17:58.458Z,22.60
2018-02-22T17:20:26.886Z,19.97
2018-02-22T17:22:55.292Z,20.87
2018-02-22T17:25:23.082Z,17.77
2018-02-22T17:27:56.938Z,19.87
2018-02-22T17:30:30.889Z,25.97
2018-02-22T17:32:59.266Z,21.67
2018-02-22T17:38:51.862Z,21.43
2018-02-22T17:41:35.101Z,21.90
2018-02-22T17:44:03.497Z,22.20
2018-02-22T17:46:31.878Z,24.20
2018-02-22T17:49:00.245Z,21.30
2018-02-22T17:51:28.639Z,22.70
2018-02-22T17:53:57.020Z,24.43
2018-02-22T17:56:25.408Z,21.70
2018-02-22T17:58:53.771Z,24.23
2018-02-22T18:01:22.142Z,24.10
2018-02-22T18:03:50.529Z,23.80
2018-02-22T18:06:18.890Z,24.87
2018-02-22T18:08:47.274Z,24.97
2018-02-22T18:11:15.658Z,24.40
2018-02-22T18:13:44.025Z,22.07
2018-02-22T18:16:12.419Z,26.63
2018-02-22T18:18:40.793Z,24.93
2018-02-22T18:21:09.153Z,29.60
2018-02-22T18:23:37.546Z,28.80
2018-02-22T18:26:06.195Z,24.60
2018-02-22T18:28:35.370Z,22.17
2018-02-22T18:31:03.742Z,26.13
2018-02-22T18:33:32.102Z,23.67
2018-02-22T18:36:00.494Z,32.93
2018-02-22T18:38:28.885Z,28.40
2018-02-22T18:41:00.213Z,45.13
2018-02-22T18:43:34.512Z,30.43
2018-02-22T18:46:02.942Z,32.00
2018-02-22T18:48:31.310Z,26.87
2018-02-22T18:50:59.674Z,32.50
2018-02-22T18:53:28.065Z,31.10
2018-02-22T18:55:56.450Z,29.97
2018-02-22T18:58:24.814Z,28.83
2018-02-22T19:00:53.207Z,30.23
2018-02-22T19:03:21.765Z,31.43
2018-02-22T19:05:50.329Z,30.50
2018-02-22T19:08:18.718Z,32.93
2018-02-22T19:10:47.080Z,34.00
2018-02-22T19:13:15.464Z,32.17
2018-02-22T19:15:43.835Z,30.83
2018-02-22T19:18:12.317Z,30.20
2018-02-22T19:20:40.876Z,32.53
2018-02-22T19:23:09.426Z,29.77
2018-02-22T19:25:37.786Z,39.10
2018-02-22T19:28:06.929Z,27.23
2018-02-22T19:30:36.073Z,31.30
2018-02-22T19:33:04.437Z,31.20
2018-02-22T19:35:32.820Z,31.10
2018-02-22T19:38:01.178Z,34.40
2018-02-22T19:40:30.346Z,36.40
2018-02-22T19:42:58.710Z,31.17
2018-02-22T19:45:27.093Z,35.10
2018-02-22T19:47:55.454Z,32.83
2018-02-22T19:50:23.841Z,33.73
2018-02-22T19:52:52.230Z,36.97
2018-02-22T19:55:20.589Z,34.33
2018-02-22T19:57:48.986Z,35.47
2018-02-22T20:00:17.350Z,32.90
2018-02-22T20:02:45.706Z,34.50
2018-02-22T20:05:14.125Z,39.10
2018-02-22T20:07:42.531Z,42.70
2018-02-22T20:10:11.661Z,31.57
2018-02-22T20:12:40.041Z,41.70
2018-02-22T20:15:08.438Z,35.47
2018-02-22T20:17:36.797Z,32.47
2018-02-22T20:20:05.166Z,34.10
2018-02-22T20:22:33.551Z,34.80
2018-02-22T20:25:01.909Z,31.20
2018-02-22T20:27:30.267Z,34.83
2018-02-22T20:29:58.653Z,34.90
2018-02-22T20:32:27.784Z,38.27
2018-02-22T20:34:56.156Z,35.40
2018-02-22T20:37:24.541Z,39.07
2018-02-22T20:39:52.902Z,36.37
2018-02-22T20:42:22.029Z,37.60
2018-02-22T20:44:50.403Z,39.67
2018-02-22T20:47:18.766Z,39.27
2018-02-22T20:49:47.137Z,35.93
2018-02-22T20:52:16.813Z,39.60
2018-02-22T20:54:50.869Z,44.10
2018-02-22T20:57:19.238Z,33.13
2018-02-22T20:59:48.365Z,43.17
2018-02-22T21:02:16.751Z,34.00
2018-02-22T21:04:45.112Z,39.47
2018-02-22T21:07:13.489Z,41.80
2018-02-22T21:09:41.848Z,39.97
2018-02-22T21:12:10.220Z,41.00
2018-02-22T21:14:39.364Z,38.50
2018-02-22T21:17:07.753Z,37.10
2018-02-22T21:19:36.153Z,40.30
2018-02-22T21:22:04.513Z,42.27
2018-02-22T21:24:32.894Z,40.63
2018-02-22T21:27:01.286Z,43.43
2018-02-22T21:29:29.650Z,38.87
2018-02-22T21:31:58.038Z,44.30
2018-02-22T21:34:26.398Z,39.27
2018-02-22T21:36:54.767Z,31.97
2018-02-22T21:39:23.228Z,34.90
2018-02-22T21:41:51.625Z,35.53
2018-02-22T21:44:19.998Z,37.47
2018-02-22T21:46:48.386Z,35.50
2018-02-22T21:49:16.754Z,35.83
2018-02-22T21:51:45.154Z,36.53
2018-02-22T21:54:13.518Z,33.30
2018-02-22T21:56:41.882Z,36.33
2018-02-22T21:59:10.278Z,36.70
2018-02-22T22:01:38.643Z,36.20
2018-02-22T22:04:07.009Z,38.33
2018-02-22T22:06:35.404Z,37.20
2018-02-22T22:09:03.890Z,37.10
2018-02-22T22:11:32.301Z,36.30
2018-02-22T22:14:00.688Z,35.67
2018-02-22T22:16:29.845Z,35.20
2018-02-22T22:18:58.214Z,40.90
2018-02-22T22:21:26.600Z,38.53
2018-02-22T22:23:55.018Z,43.40
2018-02-22T22:26:23.409Z,36.10
2018-02-22T22:28:51.778Z,43.27
2018-02-22T22:31:20.218Z,41.87
2018-02-22T22:33:48.629Z,49.50
2018-02-22T22:36:17.017Z,58.73
2018-02-22T22:38:45.425Z,42.70
2018-02-22T22:41:14.558Z,36.73
2018-02-22T22:43:43.005Z,33.93
2018-02-22T22:46:12.236Z,44.33
2018-02-22T22:48:40.602Z,34.20
2018-02-22T22:51:09.002Z,34.60
2018-02-22T22:53:37.407Z,32.00
2018-02-22T22:56:05.776Z,30.37
2018-02-22T22:58:34.129Z,29.03
2018-02-22T23:01:02.531Z,30.63
2018-02-22T23:03:30.897Z,32.60
2018-02-22T23:05:59.265Z,29.13
2018-02-22T23:08:27.650Z,26.50
2018-02-22T23:10:56.015Z,31.13
2018-02-22T23:13:24.461Z,32.70
2018-02-22T23:15:52.831Z,26.93
2018-02-22T23:18:21.199Z,27.50
2018-02-22T23:20:49.586Z,29.07
2018-02-22T23:23:17.965Z,28.73
2018-02-22T23:25:46.402Z,25.90
2018-02-22T23:28:14.766Z,26.67
2018-02-22T23:30:43.153Z,27.37
2018-02-22T23:33:11.546Z,27.07
2018-02-22T23:35:39.913Z,24.87
2018-02-22T23:38:08.278Z,24.30
2018-02-22T23:40:42.699Z,24.27
2018-02-22T23:43:11.064Z,21.90
2018-02-22T23:45:40.203Z,25.67
2018-02-22T23:48:08.591Z,27.10
2018-02-22T23:50:36.960Z,23.47
2018-02-22T23:53:05.337Z,24.53
2018-02-22T23:55:33.710Z,25.27
2018-02-22T23:58:02.112Z,25.00
